createdAt,value
2018-07-07T00:00:11.138Z,0.00
2018-07-07T00:01:11.187Z,0.00
2018-07-07T00:02:11.269Z,0.00
2018-07-07T00:03:11.282Z,0.00
2018-07-07T00:04:11.331Z,0.00
2018-07-07T00:05:11.380Z,0.00
2018-07-07T00:06:11.429Z,0.00
2018-07-07T00:07:11.510Z,0.00
2018-07-07T00:08:11.528Z,0.00
2018-07-07T00:09:11.605Z,0.00
2018-07-07T00:10:11.636Z,0.00
2018-07-07T00:11:11.679Z,0.00
2018-07-07T00:12:11.730Z,0.00
2018-07-07T00:13:11.776Z,0.00
2018-07-07T00:14:11.850Z,0.00
2018-07-07T00:15:11.875Z,0.00
2018-07-07T00:16:11.927Z,0.00
2018-07-07T00:17:11.976Z,0.00
2018-07-07T00:18:12.051Z,0.00
2018-07-07T00:19:12.108Z,0.00
2018-07-07T00:20:12.123Z,0.00
2018-07-07T00:21:12.174Z,0.00
2018-07-07T00:22:12.221Z,0.00
2018-07-07T00:23:12.303Z,0.00
2018-07-07T00:24:12.320Z,0.00
2018-07-07T00:25:12.370Z,0.00
2018-07-07T00:26:12.419Z,0.00
2018-07-07T00:27:12.548Z,0.00
2018-07-07T00:28:12.544Z,0.00
2018-07-07T00:29:12.567Z,0.00
2018-07-07T00:30:12.616Z,0.00
2018-07-07T00:31:12.668Z,0.00
2018-07-07T00:32:12.717Z,0.00
2018-07-07T00:33:12.795Z,0.00
2018-07-07T00:34:12.817Z,0.00
2018-07-07T00:35:13.107Z,0.00
2018-07-07T00:36:12.917Z,0.00
2018-07-07T00:37:12.962Z,0.00
2018-07-07T00:38:13.034Z,0.00
2018-07-07T00:39:13.065Z,0.00
2018-07-07T00:40:13.115Z,0.00
2018-07-07T00:41:13.185Z,0.00
2018-07-07T00:42:13.209Z,0.00
2018-07-07T00:43:13.263Z,0.00
2018-07-07T00:44:13.309Z,0.00
2018-07-07T00:45:13.357Z,0.00
2018-07-07T00:46:13.435Z,0.00
2018-07-07T00:47:13.458Z,0.00
2018-07-07T00:48:13.507Z,0.00
2018-07-07T00:49:13.589Z,0.00
2018-07-07T00:50:13.606Z,0.00
2018-07-07T00:51:13.679Z,0.00
2018-07-07T00:52:13.705Z,0.00
2018-07-07T00:53:13.755Z,0.00
2018-07-07T00:54:13.803Z,0.00
2018-07-07T00:55:13.879Z,0.00
2018-07-07T00:56:13.902Z,0.00
2018-07-07T00:57:13.955Z,0.00
2018-07-07T00:58:14.001Z,0.00
2018-07-07T00:59:14.055Z,0.00
2018-07-07T01:00:14.126Z,0.00
2018-07-07T01:01:14.148Z,0.00
2018-07-07T01:02:14.223Z,0.00
2018-07-07T01:03:14.248Z,0.00
2018-07-07T01:04:14.298Z,0.00
2018-07-07T01:05:14.345Z,0.00
2018-07-07T01:06:14.397Z,0.00
2018-07-07T01:07:14.493Z,0.00
2018-07-07T01:08:14.495Z,0.00
2018-07-07T01:09:14.545Z,0.00
2018-07-07T01:10:14.601Z,0.00
2018-07-07T01:11:14.656Z,0.00
2018-07-07T01:12:14.718Z,0.00
2018-07-07T01:13:14.767Z,0.00
2018-07-07T01:14:14.792Z,0.00
2018-07-07T01:15:14.841Z,0.00
2018-07-07T01:16:14.894Z,0.00
2018-07-07T01:17:14.938Z,0.00
2018-07-07T01:18:15.025Z,0.00
2018-07-07T01:19:15.039Z,0.00
2018-07-07T01:20:15.090Z,0.00
2018-07-07T01:21:15.136Z,0.00
2018-07-07T01:22:15.189Z,0.00
2018-07-07T01:23:15.273Z,0.00
2018-07-07T01:24:15.288Z,0.00
2018-07-07T01:25:15.333Z,0.00
2018-07-07T01:26:15.384Z,0.00
2018-07-07T01:27:15.434Z,0.00
2018-07-07T01:28:15.508Z,0.00
2018-07-07T01:29:15.535Z,0.00
2018-07-07T01:30:15.585Z,0.00
2018-07-07T01:31:15.633Z,0.00
2018-07-07T01:32:15.680Z,0.00
2018-07-07T01:33:15.768Z,0.00
2018-07-07T01:34:15.781Z,0.00
2018-07-07T01:35:15.831Z,0.00
2018-07-07T01:36:15.884Z,0.00
2018-07-07T01:37:15.926Z,0.00
2018-07-07T01:38:15.998Z,0.00
2018-07-07T01:39:16.026Z,0.00
2018-07-07T01:40:16.099Z,0.00
2018-07-07T01:41:16.179Z,0.00
2018-07-07T01:42:16.176Z,0.00
2018-07-07T01:43:16.223Z,0.00
2018-07-07T01:44:16.302Z,0.00
2018-07-07T01:45:16.321Z,0.00
2018-07-07T01:46:16.372Z,0.00
2018-07-07T01:47:16.428Z,0.00
2018-07-07T01:48:16.471Z,0.00
2018-07-07T01:49:16.553Z,0.00
2018-07-07T01:50:16.572Z,0.00
2018-07-07T01:51:16.618Z,0.00
2018-07-07T01:52:16.670Z,0.00
2018-07-07T01:53:16.719Z,0.00
2018-07-07T01:54:16.810Z,0.00
2018-07-07T01:55:16.816Z,0.00
2018-07-07T01:56:16.873Z,0.00
2018-07-07T01:57:16.917Z,0.00
2018-07-07T01:58:16.964Z,0.00
2018-07-07T01:59:17.046Z,0.00
2018-07-07T02:00:17.064Z,0.00
2018-07-07T02:01:17.115Z,0.00
2018-07-07T02:02:17.163Z,0.00
2018-07-07T02:03:17.215Z,0.00
2018-07-07T02:04:17.287Z,0.00
2018-07-07T02:05:17.314Z,0.00
2018-07-07T02:06:17.386Z,0.00
2018-07-07T02:07:17.414Z,0.00
2018-07-07T02:08:17.462Z,0.00
2018-07-07T02:09:17.508Z,0.00
2018-07-07T02:10:17.596Z,0.00
2018-07-07T02:11:17.631Z,0.00
2018-07-07T02:12:17.660Z,0.00
2018-07-07T02:13:17.713Z,0.00
2018-07-07T02:14:17.755Z,0.00
2018-07-07T02:15:17.810Z,0.00
2018-07-07T02:16:17.880Z,0.00
2018-07-07T02:17:17.927Z,0.00
2018-07-07T02:18:17.954Z,0.00
2018-07-07T02:19:18.007Z,0.00
2018-07-07T02:20:18.053Z,0.00
2018-07-07T02:21:18.126Z,0.00
2018-07-07T02:22:18.176Z,0.00
2018-07-07T02:23:18.200Z,0.00
2018-07-07T02:24:18.250Z,0.00
2018-07-07T02:25:18.298Z,0.00
2018-07-07T02:26:18.348Z,0.00
2018-07-07T02:27:18.436Z,0.00
2018-07-07T02:28:18.484Z,0.00
2018-07-07T02:29:18.496Z,0.00
2018-07-07T02:30:18.547Z,0.00
2018-07-07T02:31:18.595Z,0.00
2018-07-07T02:32:18.671Z,0.00
2018-07-07T02:33:18.696Z,0.00
2018-07-07T02:34:18.744Z,0.00
2018-07-07T02:35:18.793Z,0.00
2018-07-07T02:36:18.844Z,0.00
2018-07-07T02:37:18.927Z,0.00
2018-07-07T02:38:18.943Z,0.00
2018-07-07T02:39:18.994Z,0.00
2018-07-07T02:40:19.045Z,0.00
2018-07-07T02:41:19.090Z,0.00
2018-07-07T02:42:19.163Z,0.00
2018-07-07T02:43:19.217Z,0.00
2018-07-07T02:44:19.247Z,0.00
2018-07-07T02:45:19.290Z,0.00
2018-07-07T02:46:19.428Z,0.00
2018-07-07T02:47:19.394Z,0.00
2018-07-07T02:48:19.467Z,0.00
2018-07-07T02:49:19.490Z,0.00
2018-07-07T02:50:19.537Z,0.00
2018-07-07T02:51:19.590Z,0.00
2018-07-07T02:52:19.636Z,0.00
2018-07-07T02:53:19.717Z,0.00
2018-07-07T02:54:19.753Z,0.00
2018-07-07T02:55:19.785Z,4.00
2018-07-07T02:56:19.835Z,4.00
2018-07-07T02:57:19.885Z,0.00
2018-07-07T02:58:19.956Z,4.00
2018-07-07T02:59:20.006Z,4.00
2018-07-07T03:00:20.035Z,4.00
2018-07-07T03:01:20.083Z,4.00
2018-07-07T03:02:20.132Z,4.00
2018-07-07T03:03:20.220Z,8.00
2018-07-07T03:04:20.253Z,8.00
2018-07-07T03:05:20.278Z,8.00
2018-07-07T03:06:20.336Z,12.00
2018-07-07T03:07:20.379Z,12.00
2018-07-07T03:08:20.428Z,16.00
2018-07-07T03:09:20.502Z,16.00
2018-07-07T03:10:20.560Z,16.00
2018-07-07T03:11:20.578Z,24.00
2018-07-07T03:12:20.627Z,28.00
2018-07-07T03:13:20.679Z,28.00
2018-07-07T03:14:20.747Z,36.00
2018-07-07T03:15:20.780Z,40.00
2018-07-07T03:16:20.828Z,48.00
2018-07-07T03:17:20.873Z,52.00
2018-07-07T03:18:20.922Z,64.00
2018-07-07T03:19:20.995Z,72.00
2018-07-07T03:20:21.023Z,80.00
2018-07-07T03:21:21.094Z,88.00
2018-07-07T03:22:21.120Z,100.00
2018-07-07T03:23:21.172Z,112.00
2018-07-07T03:24:21.250Z,124.00
2018-07-07T03:25:21.272Z,140.00
2018-07-07T03:26:21.318Z,152.00
2018-07-07T03:27:21.372Z,164.00
2018-07-07T03:28:21.420Z,184.00
2018-07-07T03:29:21.497Z,204.00
2018-07-07T03:30:21.515Z,224.00
2018-07-07T03:31:21.616Z,252.00
2018-07-07T03:32:21.617Z,276.00
2018-07-07T03:33:21.666Z,296.00
2018-07-07T03:34:21.713Z,320.00
2018-07-07T03:35:21.765Z,348.00
2018-07-07T03:36:21.842Z,380.00
2018-07-07T03:37:21.864Z,408.00
2018-07-07T03:38:21.912Z,440.00
2018-07-07T03:39:21.969Z,476.00
2018-07-07T03:40:22.013Z,512.00
2018-07-07T03:41:22.085Z,548.00
2018-07-07T03:42:22.221Z,584.00
2018-07-07T03:43:22.163Z,616.00
2018-07-07T03:44:22.214Z,652.00
2018-07-07T03:45:22.260Z,688.00
2018-07-07T03:46:22.340Z,724.00
2018-07-07T03:47:22.380Z,768.00
2018-07-07T03:48:22.410Z,804.00
2018-07-07T03:49:22.460Z,848.00
2018-07-07T03:50:22.508Z,892.00
2018-07-07T03:51:22.578Z,940.00
2018-07-07T03:52:22.630Z,984.00
2018-07-07T03:53:22.656Z,1032.00
2018-07-07T03:54:22.703Z,1080.00
2018-07-07T03:55:22.755Z,1124.00
2018-07-07T03:56:22.826Z,1172.00
2018-07-07T03:57:22.880Z,1216.00
2018-07-07T03:58:22.901Z,1268.00
2018-07-07T03:59:22.959Z,1316.00
2018-07-07T04:00:22.998Z,1364.00
2018-07-07T04:01:23.049Z,1416.00
2018-07-07T04:02:23.135Z,1464.00
2018-07-07T04:03:23.147Z,1516.00
2018-07-07T04:04:23.199Z,1568.00
2018-07-07T04:05:23.247Z,1624.00
2018-07-07T04:06:23.298Z,1676.00
2018-07-07T04:07:23.375Z,1736.00
2018-07-07T04:08:23.393Z,1792.00
2018-07-07T04:09:23.441Z,1852.00
2018-07-07T04:10:23.493Z,1912.00
2018-07-07T04:11:23.543Z,1980.00
2018-07-07T04:12:23.629Z,2044.00
2018-07-07T04:13:23.640Z,2116.00
2018-07-07T04:14:23.690Z,2196.00
2018-07-07T04:15:23.738Z,2280.00
2018-07-07T04:16:23.788Z,2380.00
2018-07-07T04:17:23.862Z,2488.00
2018-07-07T04:18:23.913Z,2580.00
2018-07-07T04:19:23.937Z,2652.00
2018-07-07T04:20:23.987Z,2724.00
2018-07-07T04:21:24.038Z,2760.00
2018-07-07T04:22:24.084Z,2788.00
2018-07-07T04:23:24.158Z,2840.00
2018-07-07T04:24:24.183Z,2896.00
2018-07-07T04:25:24.232Z,2956.00
2018-07-07T04:26:24.280Z,3016.00
2018-07-07T04:27:24.332Z,3040.00
2018-07-07T04:28:24.426Z,3064.00
2018-07-07T04:29:24.431Z,3068.00
2018-07-07T04:30:24.483Z,3076.00
2018-07-07T04:31:24.527Z,3092.00
2018-07-07T04:32:24.576Z,3116.00
2018-07-07T04:33:24.663Z,3152.00
2018-07-07T04:34:24.674Z,3192.00
2018-07-07T04:35:24.747Z,3236.00
2018-07-07T04:36:24.776Z,3272.00
2018-07-07T04:37:24.826Z,3316.00
2018-07-07T04:38:24.896Z,3384.00
2018-07-07T04:39:24.933Z,3480.00
2018-07-07T04:40:24.994Z,3632.00
2018-07-07T04:41:25.023Z,3812.00
2018-07-07T04:42:25.073Z,3988.00
2018-07-07T04:43:25.118Z,4108.00
2018-07-07T04:44:25.168Z,4172.00
2018-07-07T04:45:25.239Z,4268.00
2018-07-07T04:46:25.265Z,4352.00
2018-07-07T04:47:25.315Z,4360.00
2018-07-07T04:48:25.363Z,4376.00
2018-07-07T04:49:25.442Z,4488.00
2018-07-07T04:50:25.502Z,4644.00
2018-07-07T04:51:25.512Z,4864.00
2018-07-07T04:52:25.616Z,5160.00
2018-07-07T04:53:25.612Z,5412.00
2018-07-07T04:54:25.661Z,5592.00
2018-07-07T04:55:25.743Z,5716.00
2018-07-07T04:56:25.762Z,5740.00
2018-07-07T04:57:25.809Z,5788.00
2018-07-07T04:58:25.859Z,5908.00
2018-07-07T04:59:25.906Z,6008.00
2018-07-07T05:00:25.992Z,5920.00
2018-07-07T05:01:26.008Z,5856.00
2018-07-07T05:02:26.062Z,5720.00
2018-07-07T05:03:26.103Z,5704.00
2018-07-07T05:04:26.168Z,5724.00
2018-07-07T05:05:26.227Z,5772.00
2018-07-07T05:06:26.278Z,5884.00
2018-07-07T05:07:26.304Z,5964.00
2018-07-07T05:08:26.356Z,6020.00
2018-07-07T05:09:26.404Z,6196.00
2018-07-07T05:10:26.450Z,6336.00
2018-07-07T05:11:26.524Z,6452.00
2018-07-07T05:12:26.573Z,6540.00
2018-07-07T05:13:26.598Z,6656.00
2018-07-07T05:14:26.649Z,6820.00
2018-07-07T05:15:26.708Z,6992.00
2018-07-07T05:16:26.749Z,7196.00
2018-07-07T05:17:26.820Z,7548.00
2018-07-07T05:18:26.849Z,7836.00
2018-07-07T05:19:26.896Z,8044.00
2018-07-07T05:20:26.947Z,8192.00
2018-07-07T05:21:26.994Z,8476.00
2018-07-07T05:22:27.068Z,8880.00
2018-07-07T05:23:27.096Z,9308.00
2018-07-07T05:24:27.148Z,9712.00
2018-07-07T05:25:27.192Z,10068.00
2018-07-07T05:26:27.243Z,10312.00
2018-07-07T05:27:27.317Z,10556.00
2018-07-07T05:28:27.374Z,10808.00
2018-07-07T05:29:27.394Z,10996.00
2018-07-07T05:30:27.443Z,11080.00
2018-07-07T05:31:27.493Z,11268.00
2018-07-07T05:32:27.566Z,11508.00
2018-07-07T05:33:27.591Z,11380.00
2018-07-07T05:34:27.642Z,11152.00
2018-07-07T05:35:27.692Z,10864.00
2018-07-07T05:36:27.743Z,10516.00
2018-07-07T05:37:27.813Z,10272.00
2018-07-07T05:38:27.838Z,10152.00
2018-07-07T05:39:28.340Z,10220.00
2018-07-07T05:40:28.645Z,10360.00
2018-07-07T05:41:27.988Z,10488.00
2018-07-07T05:42:28.063Z,10844.00
2018-07-07T05:43:28.092Z,11264.00
2018-07-07T05:44:28.137Z,12112.00
2018-07-07T05:45:28.187Z,12968.00
2018-07-07T05:46:28.238Z,12660.00
2018-07-07T05:47:28.317Z,11852.00
2018-07-07T05:48:28.341Z,11216.00
2018-07-07T05:49:28.411Z,10676.00
2018-07-07T05:50:28.440Z,10132.00
2018-07-07T05:51:28.488Z,9644.00
2018-07-07T05:52:28.539Z,9256.00
2018-07-07T05:53:28.589Z,9032.00
2018-07-07T05:54:28.663Z,8708.00
2018-07-07T05:55:29.653Z,8564.00
2018-07-07T05:56:28.739Z,8572.00
2018-07-07T05:57:29.378Z,8756.00
2018-07-07T05:58:28.864Z,9012.00
2018-07-07T05:59:28.888Z,9276.00
2018-07-07T06:00:28.963Z,9512.00
2018-07-07T06:01:28.988Z,9828.00
2018-07-07T06:02:29.038Z,10192.00
2018-07-07T06:03:29.090Z,10668.00
2018-07-07T06:04:29.172Z,11056.00
2018-07-07T06:05:29.213Z,11412.00
2018-07-07T06:06:29.238Z,11772.00
2018-07-07T06:07:29.291Z,12288.00
2018-07-07T06:08:29.341Z,12908.00
2018-07-07T06:09:29.413Z,13592.00
2018-07-07T06:10:29.439Z,14256.00
2018-07-07T06:11:29.516Z,14684.00
2018-07-07T06:12:29.540Z,14828.00
2018-07-07T06:13:29.587Z,14676.00
2018-07-07T06:14:29.731Z,14540.00
2018-07-07T06:15:29.691Z,14484.00
2018-07-07T06:16:29.768Z,14632.00
2018-07-07T06:17:29.788Z,15024.00
2018-07-07T06:18:29.845Z,15524.00
2018-07-07T06:19:29.922Z,16124.00
2018-07-07T06:20:29.942Z,16604.00
2018-07-07T06:21:29.989Z,16912.00
2018-07-07T06:22:30.040Z,17228.00
2018-07-07T06:23:30.124Z,17436.00
2018-07-07T06:24:30.178Z,17644.00
2018-07-07T06:25:30.191Z,17848.00
2018-07-07T06:26:30.248Z,17916.00
2018-07-07T06:27:30.291Z,17788.00
2018-07-07T06:28:30.351Z,17556.00
2018-07-07T06:29:30.423Z,17412.00
2018-07-07T06:30:30.443Z,17360.00
2018-07-07T06:31:30.492Z,17288.00
2018-07-07T06:32:30.542Z,17336.00
2018-07-07T06:33:30.596Z,17392.00
2018-07-07T06:34:30.682Z,17464.00
2018-07-07T06:35:31.356Z,17304.00
2018-07-07T06:36:30.744Z,17096.00
2018-07-07T06:37:30.796Z,16884.00
2018-07-07T06:38:30.846Z,16724.00
2018-07-07T06:39:30.921Z,16620.00
2018-07-07T06:40:30.946Z,16564.00
2018-07-07T06:41:30.998Z,16736.00
2018-07-07T06:42:31.047Z,16908.00
2018-07-07T06:43:31.096Z,17164.00
2018-07-07T06:44:31.176Z,17852.00
2018-07-07T06:45:31.201Z,18848.00
2018-07-07T06:46:31.250Z,19616.00
2018-07-07T06:47:31.300Z,19872.00
2018-07-07T06:48:31.352Z,19360.00
2018-07-07T06:49:31.438Z,19424.00
2018-07-07T06:50:31.450Z,19936.00
2018-07-07T06:51:31.504Z,20480.00
2018-07-07T06:52:31.553Z,20096.00
2018-07-07T06:53:31.602Z,19776.00
2018-07-07T06:54:31.677Z,19328.00
2018-07-07T06:55:31.706Z,19552.00
2018-07-07T06:56:31.758Z,19744.00
2018-07-07T06:57:31.806Z,19264.00
2018-07-07T06:58:31.865Z,19104.00
2018-07-07T06:59:31.952Z,19552.00
2018-07-07T07:00:31.958Z,19936.00
2018-07-07T07:01:32.008Z,20256.00
2018-07-07T07:02:32.063Z,20288.00
2018-07-07T07:03:32.127Z,20480.00
2018-07-07T07:04:32.192Z,20032.00
2018-07-07T07:05:32.211Z,19904.00
2018-07-07T07:06:32.319Z,20288.00
2018-07-07T07:07:32.314Z,20256.00
2018-07-07T07:08:32.372Z,19744.00
2018-07-07T07:09:32.444Z,19168.00
2018-07-07T07:10:32.466Z,18944.00
2018-07-07T07:11:32.517Z,19584.00
2018-07-07T07:12:32.570Z,20736.00
2018-07-07T07:13:32.628Z,20832.00
2018-07-07T07:14:32.697Z,20096.00
2018-07-07T07:15:32.748Z,20160.00
2018-07-07T07:16:32.770Z,19808.00
2018-07-07T07:17:32.823Z,20352.00
2018-07-07T07:18:32.873Z,21344.00
2018-07-07T07:19:32.931Z,21792.00
2018-07-07T07:20:33.003Z,22880.00
2018-07-07T07:21:33.028Z,33824.00
2018-07-07T07:22:33.080Z,44416.00
2018-07-07T07:23:33.129Z,60064.00
2018-07-07T07:24:33.181Z,39744.00
2018-07-07T07:25:33.262Z,55776.00
2018-07-07T07:26:33.286Z,47904.00
2018-07-07T07:27:33.337Z,18336.00
2018-07-07T07:28:33.387Z,14988.00
2018-07-07T07:29:33.440Z,13456.00
2018-07-07T07:30:33.529Z,13680.00
2018-07-07T07:31:33.543Z,14396.00
2018-07-07T07:32:33.595Z,15684.00
2018-07-07T07:33:33.647Z,17204.00
2018-07-07T07:34:33.700Z,48128.00
2018-07-07T07:35:33.776Z,33312.00
2018-07-07T07:36:33.826Z,15164.00
2018-07-07T07:37:33.851Z,14344.00
2018-07-07T07:38:33.905Z,14608.00
2018-07-07T07:39:33.957Z,16128.00
2018-07-07T07:40:34.008Z,18336.00
2018-07-07T07:41:34.082Z,19744.00
2018-07-07T07:42:34.114Z,20800.00
2018-07-07T07:43:34.167Z,23008.00
2018-07-07T07:44:34.221Z,19200.00
2018-07-07T07:45:34.266Z,13940.00
2018-07-07T07:46:34.345Z,11508.00
2018-07-07T07:47:34.371Z,11216.00
2018-07-07T07:48:34.420Z,11940.00
2018-07-07T07:49:34.538Z,12524.00
2018-07-07T07:50:34.522Z,12804.00
2018-07-07T07:51:34.601Z,13212.00
2018-07-07T07:52:34.655Z,13448.00
2018-07-07T07:53:34.675Z,14588.00
2018-07-07T07:54:35.380Z,15824.00
2018-07-07T07:55:34.781Z,17636.00
2018-07-07T07:56:34.831Z,17348.00
2018-07-07T07:57:34.913Z,16476.00
2018-07-07T07:58:34.932Z,15740.00
2018-07-07T07:59:34.984Z,15820.00
2018-07-07T08:00:35.036Z,15660.00
2018-07-07T08:01:35.087Z,15664.00
2018-07-07T08:02:35.167Z,16780.00
2018-07-07T08:03:35.882Z,20288.00
2018-07-07T08:04:35.884Z,21760.00
2018-07-07T08:05:35.294Z,17520.00
2018-07-07T08:06:36.385Z,22944.00
2018-07-07T08:07:35.408Z,53664.00
2018-07-07T08:08:35.469Z,72480.00
2018-07-07T08:09:35.498Z,99008.00
2018-07-07T08:10:35.552Z,98080.00
2018-07-07T08:11:35.609Z,92736.00
2018-07-07T08:12:35.653Z,89088.00
2018-07-07T08:13:35.726Z,81504.00
2018-07-07T08:14:35.753Z,75296.00
2018-07-07T08:15:35.810Z,78112.00
2018-07-07T08:16:35.857Z,87808.00
2018-07-07T08:17:35.910Z,96576.00
2018-07-07T08:18:36.694Z,95712.00
2018-07-07T08:19:36.015Z,101696.00
2018-07-07T08:20:36.065Z,109024.00
2018-07-07T08:21:36.118Z,110368.00
2018-07-07T08:22:36.195Z,101792.00
2018-07-07T08:23:36.247Z,85504.00
2018-07-07T08:24:36.299Z,70464.00
2018-07-07T08:25:36.343Z,61856.00
2018-07-07T08:26:36.381Z,60608.00
2018-07-07T08:27:36.433Z,64256.00
2018-07-07T08:28:36.488Z,67808.00
2018-07-07T08:29:36.563Z,76096.00
2018-07-07T08:30:36.591Z,80160.00
2018-07-07T08:31:36.650Z,81120.00
2018-07-07T08:32:36.701Z,80320.00
2018-07-07T08:33:36.750Z,81632.00
2018-07-07T08:34:36.832Z,89536.00
2018-07-07T08:35:36.883Z,98624.00
2018-07-07T08:36:36.913Z,105216.00
2018-07-07T08:37:36.966Z,106528.00
2018-07-07T08:38:37.018Z,98656.00
2018-07-07T08:39:37.075Z,90656.00
2018-07-07T08:40:37.155Z,84512.00
2018-07-07T08:41:37.182Z,86016.00
2018-07-07T08:42:37.235Z,89376.00
2018-07-07T08:43:37.294Z,88800.00
2018-07-07T08:44:37.345Z,86176.00
2018-07-07T08:45:37.520Z,86688.00
2018-07-07T08:46:37.452Z,84384.00
2018-07-07T08:47:37.504Z,82496.00
2018-07-07T08:48:37.615Z,86464.00
2018-07-07T08:49:39.401Z,95232.00
2018-07-07T08:50:37.691Z,105344.00
2018-07-07T08:51:37.745Z,114944.00
2018-07-07T08:52:37.773Z,124064.00
2018-07-07T08:53:37.829Z,126720.00
2018-07-07T08:54:37.884Z,115104.00
2018-07-07T08:55:37.937Z,100832.00
2018-07-07T08:56:38.903Z,85376.00
2018-07-07T08:57:38.043Z,72192.00
2018-07-07T08:58:38.099Z,76096.00
2018-07-07T08:59:38.149Z,81632.00
2018-07-07T09:00:38.204Z,80192.00
2018-07-07T09:01:38.296Z,82304.00
2018-07-07T09:02:38.908Z,75904.00
2018-07-07T09:03:38.369Z,81120.00
2018-07-07T09:04:38.421Z,80320.00
2018-07-07T09:05:38.473Z,83680.00
2018-07-07T09:06:38.559Z,88096.00
2018-07-07T09:07:38.605Z,96800.00
2018-07-07T09:08:38.637Z,104288.00
2018-07-07T09:09:38.693Z,107104.00
2018-07-07T09:10:38.742Z,108832.00
2018-07-07T09:11:38.829Z,110816.00
2018-07-07T09:12:38.853Z,111456.00
2018-07-07T09:13:38.904Z,113344.00
2018-07-07T09:14:38.964Z,116992.00
2018-07-07T09:15:39.412Z,126752.00
2018-07-07T09:16:39.100Z,138912.00
2018-07-07T09:17:39.136Z,147328.00
2018-07-07T09:18:39.182Z,145344.00
2018-07-07T09:19:39.232Z,131040.00
2018-07-07T09:20:39.289Z,111616.00
2018-07-07T09:21:39.377Z,98592.00
2018-07-07T09:22:39.393Z,88512.00
2018-07-07T09:23:41.415Z,82592.00
2018-07-07T09:24:39.504Z,87616.00
2018-07-07T09:25:39.562Z,98624.00
2018-07-07T09:26:39.661Z,113952.00
2018-07-07T09:27:40.416Z,128512.00
2018-07-07T09:28:39.724Z,143936.00
2018-07-07T09:29:39.776Z,154016.00
2018-07-07T09:30:39.830Z,157120.00
2018-07-07T09:31:39.917Z,154400.00
2018-07-07T09:32:39.939Z,138336.00
2018-07-07T09:33:39.991Z,116992.00
2018-07-07T09:34:40.047Z,102688.00
2018-07-07T09:35:40.106Z,87040.00
2018-07-07T09:36:40.185Z,79968.00
2018-07-07T09:37:40.953Z,80448.00
2018-07-07T09:38:40.272Z,83968.00
2018-07-07T09:39:41.427Z,90400.00
2018-07-07T09:40:40.374Z,96096.00
2018-07-07T09:41:40.425Z,98496.00
2018-07-07T09:42:41.423Z,99904.00
2018-07-07T09:43:42.423Z,97888.00
2018-07-07T09:44:40.623Z,95840.00
2018-07-07T09:45:40.644Z,96480.00
2018-07-07T09:46:40.701Z,103872.00
2018-07-07T09:47:40.755Z,112544.00
2018-07-07T09:48:41.450Z,120288.00
2018-07-07T09:49:40.887Z,126208.00
2018-07-07T09:50:40.924Z,135936.00
2018-07-07T09:51:41.431Z,135200.00
2018-07-07T09:52:41.054Z,136480.00
2018-07-07T09:53:41.082Z,136576.00
2018-07-07T09:54:41.140Z,129376.00
2018-07-07T09:55:41.217Z,116064.00
2018-07-07T09:56:41.246Z,96832.00
2018-07-07T09:57:41.930Z,79616.00
2018-07-07T09:58:41.359Z,69280.00
2018-07-07T09:59:41.412Z,71456.00
2018-07-07T10:00:41.467Z,81760.00
2018-07-07T10:01:41.522Z,99840.00
2018-07-07T10:02:41.615Z,115328.00
2018-07-07T10:03:41.637Z,82496.00
2018-07-07T10:04:41.690Z,119648.00
2018-07-07T10:05:41.785Z,118336.00
2018-07-07T10:06:41.802Z,61888.00
2018-07-07T10:07:41.953Z,96864.00
2018-07-07T10:08:41.918Z,133312.00
2018-07-07T10:09:41.965Z,24160.00
2018-07-07T10:10:42.468Z,24288.00
2018-07-07T10:11:42.074Z,34880.00
2018-07-07T10:12:42.160Z,21632.00
2018-07-07T10:13:42.207Z,28224.00
2018-07-07T10:14:42.236Z,125536.00
2018-07-07T10:15:42.294Z,103168.00
2018-07-07T10:16:42.345Z,100416.00
2018-07-07T10:17:42.399Z,53888.00
2018-07-07T10:18:42.484Z,87712.00
2018-07-07T10:19:43.439Z,102144.00
2018-07-07T10:20:42.568Z,116032.00
2018-07-07T10:21:43.483Z,126400.00
2018-07-07T10:22:42.669Z,143040.00
2018-07-07T10:23:42.762Z,147424.00
2018-07-07T10:24:42.787Z,139744.00
2018-07-07T10:25:42.831Z,127776.00
2018-07-07T10:26:42.886Z,115072.00
2018-07-07T10:27:42.941Z,109600.00
2018-07-07T10:28:43.019Z,108352.00
2018-07-07T10:29:43.051Z,107776.00
2018-07-07T10:30:43.105Z,98912.00
2018-07-07T10:31:43.160Z,108416.00
2018-07-07T10:32:43.217Z,119520.00
2018-07-07T10:33:43.295Z,128128.00
2018-07-07T10:34:43.324Z,135808.00
2018-07-07T10:35:43.377Z,135872.00
2018-07-07T10:36:43.437Z,132384.00
2018-07-07T10:37:43.489Z,134784.00
2018-07-07T10:38:43.584Z,53280.00
2018-07-07T10:39:43.600Z,135776.00
2018-07-07T10:40:43.654Z,98016.00
2018-07-07T10:41:43.709Z,90080.00
2018-07-07T10:42:43.768Z,102144.00
2018-07-07T10:43:43.850Z,92224.00
2018-07-07T10:44:43.876Z,98176.00
2018-07-07T10:45:44.030Z,105056.00
2018-07-07T10:46:43.987Z,136704.00
2018-07-07T10:47:44.044Z,147520.00
2018-07-07T10:48:44.132Z,150528.00
2018-07-07T10:49:44.155Z,154272.00
2018-07-07T10:50:44.212Z,153440.00
2018-07-07T10:51:44.269Z,151552.00
2018-07-07T10:52:44.325Z,149184.00
2018-07-07T10:53:44.416Z,136768.00
2018-07-07T10:54:44.434Z,128320.00
2018-07-07T10:55:44.490Z,123936.00
2018-07-07T10:56:44.547Z,120704.00
2018-07-07T10:57:44.607Z,121888.00
2018-07-07T10:58:44.738Z,126880.00
2018-07-07T10:59:44.720Z,133600.00
2018-07-07T11:00:44.795Z,137632.00
2018-07-07T11:01:44.837Z,138208.00
2018-07-07T11:02:44.886Z,122048.00
2018-07-07T11:03:44.944Z,21312.00
2018-07-07T11:04:44.998Z,22976.00
2018-07-07T11:05:45.094Z,24128.00
2018-07-07T11:06:45.110Z,23840.00
2018-07-07T11:07:45.173Z,90688.00
2018-07-07T11:08:45.232Z,99520.00
2018-07-07T11:09:45.281Z,45024.00
2018-07-07T11:10:45.369Z,85920.00
2018-07-07T11:11:45.449Z,56224.00
2018-07-07T11:12:45.447Z,96640.00
2018-07-07T11:13:45.504Z,114528.00
2018-07-07T11:14:45.563Z,117312.00
2018-07-07T11:15:45.648Z,118976.00
2018-07-07T11:16:45.676Z,120992.00
2018-07-07T11:17:45.743Z,121088.00
2018-07-07T11:18:45.783Z,122112.00
2018-07-07T11:19:45.846Z,122208.00
2018-07-07T11:20:45.926Z,123296.00
2018-07-07T11:21:45.969Z,119616.00
2018-07-07T11:22:46.009Z,118240.00
2018-07-07T11:23:46.073Z,116032.00
2018-07-07T11:24:46.118Z,115520.00
2018-07-07T11:25:46.217Z,118848.00
2018-07-07T11:26:46.233Z,123648.00
2018-07-07T11:27:46.287Z,125088.00
2018-07-07T11:28:46.343Z,127008.00
2018-07-07T11:29:46.431Z,127424.00
2018-07-07T11:30:46.479Z,128256.00
2018-07-07T11:31:46.512Z,126720.00
2018-07-07T11:32:46.593Z,124512.00
2018-07-07T11:33:46.624Z,120512.00
2018-07-07T11:34:46.681Z,118208.00
2018-07-07T11:35:46.738Z,114528.00
2018-07-07T11:36:46.973Z,113024.00
2018-07-07T11:37:46.850Z,112832.00
2018-07-07T11:38:46.908Z,108160.00
2018-07-07T11:39:46.963Z,107776.00
2018-07-07T11:40:47.019Z,114656.00
2018-07-07T11:41:47.103Z,123616.00
2018-07-07T11:42:47.159Z,133056.00
2018-07-07T11:43:47.191Z,137216.00
2018-07-07T11:44:47.251Z,136576.00
2018-07-07T11:45:47.305Z,133120.00
2018-07-07T11:46:47.362Z,131264.00
2018-07-07T11:47:47.444Z,131328.00
2018-07-07T11:48:47.478Z,132448.00
2018-07-07T11:49:47.534Z,134048.00
2018-07-07T11:50:47.593Z,135840.00
2018-07-07T11:51:47.649Z,132128.00
2018-07-07T11:52:47.733Z,130592.00
2018-07-07T11:53:47.760Z,129152.00
2018-07-07T11:54:47.818Z,128384.00
2018-07-07T11:55:47.875Z,130816.00
2018-07-07T11:56:47.936Z,132704.00
2018-07-07T11:57:48.014Z,138368.00
2018-07-07T11:58:48.050Z,140320.00
2018-07-07T11:59:48.109Z,144288.00
2018-07-07T12:00:48.164Z,149216.00
2018-07-07T12:01:48.220Z,147296.00
2018-07-07T12:02:48.298Z,147424.00
2018-07-07T12:03:48.335Z,140256.00
2018-07-07T12:04:48.409Z,131392.00
2018-07-07T12:05:48.449Z,123968.00
2018-07-07T12:06:48.508Z,118368.00
2018-07-07T12:08:00.664Z,116064.00
2018-07-07T12:08:48.646Z,118912.00